Terminal Aerodrome Forecast
Issued by NWS Pittsburgh, PA

Current Version | Previous Version | Graphics & Text | Print | Product List | Glossary On
Versions: 1 2 3 4 5 6 7 8 9 10 11 12 13 14 15 16 17 18 19 20 21 22 23
000
FTUS41 KPBZ 222320
TAFPIT
TAF
KPIT 222320Z 2300/2406 14004KT P6SM SCT100
     FM231500 13008KT P6SM BKN090
     FM231800 15011KT P6SM VCSH OVC050
     FM232000 15012G20KT P6SM -SHRA OVC025
     FM232300 16012KT 4SM RA OVC015
     FM240500 18008KT P6SM VCSH OVC010=

USA.gov is the U.S. government's official web portal to all federal, state and local government web resources and services.